CST,Max TemperatureF,Mean TemperatureF,Min TemperatureF,Max Dew PointF,MeanDew PointF,Min DewpointF,Max Humidity, Mean Humidity, Min Humidity, Max Sea Level PressureIn, Mean Sea Level PressureIn, Min Sea Level PressureIn, Max VisibilityMiles, Mean VisibilityMiles, Min VisibilityMiles, Max Wind SpeedMPH, Mean Wind SpeedMPH, Max Gust SpeedMPH,PrecipitationIn, CloudCover, Events, WindDirDegrees
2011-11-1,73,55,37,43,34,30,93,57,22,30.26,30.20,30.15,10,10,10,14,3,18,0.00,0,,185
2011-11-2,71,58,44,48,40,34,71,50,35,30.23,30.14,30.03,10,10,10,15,7,21,0.00,0,,166
2011-11-3,60,52,44,54,43,37,93,75,45,29.99,29.87,29.78,10,8,2,20,14,30,0.24,7,Rain,221
2011-11-4,51,50,50,46,45,43,87,79,71,30.23,30.17,30.03,10,9,5,16,10,21,0.00,8,,1
2011-11-5,62,48,35,52,41,34,100,80,48,30.25,30.18,30.09,10,5,0,9,1,,0.00,4,Fog,137
2011-11-6,62,56,51,46,41,36,72,55,42,30.24,30.19,30.11,10,10,10,22,11,30,0.00,4,,159
2011-11-7,73,66,59,54,52,48,72,61,50,30.26,30.20,30.13,10,10,10,13,8,18,0.00,5,,176
2011-11-8,75,67,59,59,53,48,88,64,47,30.10,30.01,29.89,10,10,10,17,10,24,0.03,4,Rain,165
2011-11-9,64,55,44,61,47,34,94,70,51,30.20,29.97,29.77,10,9,5,21,13,30,0.50,6,Rain,246
2011-11-10,53,45,37,36,25,12,81,51,24,30.24,30.20,30.17,10,10,10,22,8,33,0.00,0,,281
2011-11-11,64,46,28,36,28,21,81,52,30,30.18,30.08,29.96,10,10,10,18,6,24,0.00,0,,190
2011-11-12,64,54,44,46,40,34,66,57,47,30.06,29.99,29.88,10,10,10,21,11,30,0.00,0,,183
2011-11-13,71,65,59,57,54,46,68,63,57,29.85,29.77,29.72,10,10,10,31,17,45,0.00,7,,191
2011-11-14,75,70,64,63,60,57,88,68,60,29.79,29.75,29.69,10,9,2,25,18,41,0.72,6,Rain-Thunderstorm,199
2011-11-15,59,57,55,55,54,52,94,89,82,29.90,29.84,29.79,10,8,3,16,6,17,0.72,8,Rain,157
2011-11-16,59,52,46,57,39,25,94,63,38,30.14,29.96,29.81,10,9,2,21,10,30,0.57,4,Rain-Thunderstorm,356
2011-11-17,50,42,33,28,21,10,65,43,23,30.38,30.33,30.24,10,10,10,14,5,21,0.00,2,,309
2011-11-18,55,44,33,27,23,19,65,44,25,30.36,30.25,30.10,10,10,10,17,8,23,0.00,0,,163
2011-11-19,64,55,46,50,42,30,63,59,52,30.10,30.04,29.95,10,10,10,20,13,28,0.00,7,,171
2011-11-20,62,54,46,59,52,43,94,88,68,30.19,30.13,30.07,10,5,1,13,6,17,0.46,8,Rain-Thunderstorm,108
2011-11-21,53,50,46,52,49,45,94,94,93,30.22,30.13,30.08,10,5,0,12,5,32,0.38,8,Fog-Rain-Thunderstorm,8
2011-11-22,62,56,51,61,53,46,100,91,77,30.03,29.87,29.78,10,8,2,16,8,25,0.89,8,Rain-Thunderstorm,320
2011-11-23,50,48,46,45,42,41,82,80,76,30.32,30.24,30.10,10,9,7,13,7,17,0.00,8,,336
2011-11-24,48,46,44,45,42,41,93,87,81,30.39,30.35,30.31,10,7,3,9,5,,0.00,8,,191
2011-11-25,64,50,37,50,42,36,94,74,49,30.25,30.17,30.05,10,6,0,17,4,26,0.00,3,Fog,182
2011-11-26,69,62,55,57,51,39,94,70,54,30.07,29.96,29.84,10,9,4,18,11,24,0.55,8,Rain,170
2011-11-27,48,44,41,45,38,36,93,84,76,30.09,29.99,29.87,10,6,2,17,11,23,0.37,8,,331
2011-11-28,39,37,35,36,35,32,93,86,81,30.04,29.89,29.70,10,7,2,22,13,29,0.23,8,Snow,338
2011-11-29,42,38,33,36,33,32,93,84,66,30.10,29.87,29.67,10,7,2,18,13,28,0.22,8,Snow-Thunderstorm,319
2011-11-30,42,36,30,28,25,21,87,66,42,30.23,30.17,30.10,10,10,10,9,5,,0.00,0,,276